sensor_id;sensor_type;location;lat;lon;timestamp;noise_LAeq;noise_LA_min;noise_LA_max;noise_LA01;noise_LA95
64545;Laerm;50936;51.660;5.616;2024-03-08T00:00:53;50.12;38.81;73.64;;
64545;Laerm;50936;51.660;5.616;2024-03-08T00:03:40;50.23;38.05;66.08;;
64545;Laerm;50936;51.660;5.616;2024-03-08T00:06:28;43.94;38.52;66.33;;
64545;Laerm;50936;51.660;5.616;2024-03-08T00:09:15;45.02;38.52;66.59;;
64545;Laerm;50936;51.660;5.616;2024-03-08T00:12:03;51.29;38.81;72.70;;
64545;Laerm;50936;51.660;5.616;2024-03-08T00:14:50;43.28;39.08;61.84;;
64545;Laerm;50936;51.660;5.616;2024-03-08T00:17:37;51.06;39.34;64.99;;
64545;Laerm;50936;51.660;5.616;2024-03-08T00:20:25;50.89;38.81;72.07;;
64545;Laerm;50936;51.660;5.616;2024-03-08T00:23:12;45.87;38.67;71.80;;
64545;Laerm;50936;51.660;5.616;2024-03-08T00:25:59;56.65;39.70;80.44;;
64545;Laerm;50936;51.660;5.616;2024-03-08T00:28:48;51.53;38.95;74.55;;
64545;Laerm;50936;51.660;5.616;2024-03-08T00:31:36;50.04;38.81;75.60;;
64545;Laerm;50936;51.660;5.616;2024-03-08T00:34:23;47.13;38.81;68.41;;
64545;Laerm;50936;51.660;5.616;2024-03-08T00:37:10;56.02;38.81;82.51;;
64545;Laerm;50936;51.660;5.616;2024-03-08T00:39:58;52.42;38.95;71.78;;
64545;Laerm;50936;51.660;5.616;2024-03-08T00:42:45;44.06;38.95;66.76;;
64545;Laerm;50936;51.660;5.616;2024-03-08T00:45:33;49.67;38.52;72.40;;
64545;Laerm;50936;51.660;5.616;2024-03-08T00:48:20;53.59;38.21;80.34;;
64545;Laerm;50936;51.660;5.616;2024-03-08T00:51:07;42.83;38.67;63.29;;
64545;Laerm;50936;51.660;5.616;2024-03-08T00:53:55;45.28;38.52;67.21;;
64545;Laerm;50936;51.660;5.616;2024-03-08T00:56:43;43.92;38.81;65.61;;
64545;Laerm;50936;51.660;5.616;2024-03-08T00:59:30;47.93;38.95;71.40;;
64545;Laerm;50936;51.660;5.616;2024-03-08T01:02:21;45.56;38.05;69.43;;
64545;Laerm;50936;51.660;5.616;2024-03-08T01:05:10;45.59;38.32;72.39;;
64545;Laerm;50936;51.660;5.616;2024-03-08T01:07:57;50.06;38.52;75.13;;
64545;Laerm;50936;51.660;5.616;2024-03-08T01:10:44;48.13;38.67;72.77;;
64545;Laerm;50936;51.660;5.616;2024-03-08T01:13:32;51.70;38.52;79.02;;
64545;Laerm;50936;51.660;5.616;2024-03-08T01:16:19;49.58;38.52;65.39;;
64545;Laerm;50936;51.660;5.616;2024-03-08T01:19:08;49.57;38.67;73.03;;
64545;Laerm;50936;51.660;5.616;2024-03-08T01:21:56;49.49;38.52;67.80;;
64545;Laerm;50936;51.660;5.616;2024-03-08T01:24:43;53.93;38.67;79.47;;
64545;Laerm;50936;51.660;5.616;2024-03-08T01:27:31;43.96;38.05;70.75;;
64545;Laerm;50936;51.660;5.616;2024-03-08T01:30:18;47.63;38.67;70.95;;
64545;Laerm;50936;51.660;5.616;2024-03-08T01:33:05;51.29;37.70;72.50;;
64545;Laerm;50936;51.660;5.616;2024-03-08T01:35:53;49.17;38.52;75.90;;
64545;Laerm;50936;51.660;5.616;2024-03-08T01:38:42;45.70;38.81;65.06;;
64545;Laerm;50936;51.660;5.616;2024-03-08T01:41:30;47.51;38.67;68.25;;
64545;Laerm;50936;51.660;5.616;2024-03-08T01:44:17;49.90;38.52;75.49;;
64545;Laerm;50936;51.660;5.616;2024-03-08T01:47:05;51.83;38.21;77.07;;
64545;Laerm;50936;51.660;5.616;2024-03-08T01:49:53;49.20;38.81;75.15;;
64545;Laerm;50936;51.660;5.616;2024-03-08T01:52:40;51.32;39.08;77.11;;
64545;Laerm;50936;51.660;5.616;2024-03-08T01:55:27;51.77;39.08;73.87;;
64545;Laerm;50936;51.660;5.616;2024-03-08T01:58:15;48.44;36.69;73.05;;
64545;Laerm;50936;51.660;5.616;2024-03-08T02:01:03;45.08;39.08;66.99;;
64545;Laerm;50936;51.660;5.616;2024-03-08T02:03:51;47.10;38.81;64.56;;
64545;Laerm;50936;51.660;5.616;2024-03-08T02:06:39;43.96;38.37;64.95;;
64545;Laerm;50936;51.660;5.616;2024-03-08T02:09:27;49.17;38.21;69.77;;
64545;Laerm;50936;51.660;5.616;2024-03-08T02:12:14;48.93;38.81;74.09;;
64545;Laerm;50936;51.660;5.616;2024-03-08T02:15:02;44.39;36.45;71.86;;
64545;Laerm;50936;51.660;5.616;2024-03-08T02:17:49;50.63;38.74;74.60;;
64545;Laerm;50936;51.660;5.616;2024-03-08T02:20:37;46.99;38.52;69.60;;
64545;Laerm;50936;51.660;5.616;2024-03-08T02:23:25;44.96;37.70;70.07;;
64545;Laerm;50936;51.660;5.616;2024-03-08T02:26:13;42.78;38.67;65.09;;
64545;Laerm;50936;51.660;5.616;2024-03-08T02:29:02;42.31;38.67;60.46;;
64545;Laerm;50936;51.660;5.616;2024-03-08T02:31:52;43.33;38.52;62.70;;
64545;Laerm;50936;51.660;5.616;2024-03-08T02:34:40;42.31;38.52;61.06;;
64545;Laerm;50936;51.660;5.616;2024-03-08T02:37:27;42.80;38.95;62.24;;
64545;Laerm;50936;51.660;5.616;2024-03-08T02:40:15;45.22;38.67;69.67;;
64545;Laerm;50936;51.660;5.616;2024-03-08T02:43:03;45.76;38.37;67.05;;
64545;Laerm;50936;51.660;5.616;2024-03-08T02:45:52;42.44;38.81;59.89;;
64545;Laerm;50936;51.660;5.616;2024-03-08T02:48:41;46.95;38.81;74.49;;
64545;Laerm;50936;51.660;5.616;2024-03-08T02:51:29;46.22;38.95;73.73;;
64545;Laerm;50936;51.660;5.616;2024-03-08T02:54:18;44.08;38.67;66.71;;
64545;Laerm;50936;51.660;5.616;2024-03-08T02:57:06;46.41;38.67;70.49;;
64545;Laerm;50936;51.660;5.616;2024-03-08T02:59:54;45.32;38.81;65.59;;
64545;Laerm;50936;51.660;5.616;2024-03-08T03:02:42;44.55;38.95;68.24;;
64545;Laerm;50936;51.660;5.616;2024-03-08T03:05:30;44.32;38.37;71.23;;
64545;Laerm;50936;51.660;5.616;2024-03-08T03:08:17;47.00;38.05;74.43;;
64545;Laerm;50936;51.660;5.616;2024-03-08T03:11:05;50.99;38.21;69.99;;
64545;Laerm;50936;51.660;5.616;2024-03-08T03:13:54;47.97;38.99;66.10;;
64545;Laerm;50936;51.660;5.616;2024-03-08T03:16:42;48.54;38.60;70.83;;
64545;Laerm;50936;51.660;5.616;2024-03-08T03:19:31;45.13;38.21;69.60;;
64545;Laerm;50936;51.660;5.616;2024-03-08T03:22:19;48.16;38.81;69.41;;
64545;Laerm;50936;51.660;5.616;2024-03-08T03:25:09;47.35;38.37;71.08;;
64545;Laerm;50936;51.660;5.616;2024-03-08T03:27:57;49.02;39.46;71.64;;
64545;Laerm;50936;51.660;5.616;2024-03-08T03:30:46;46.43;39.34;65.59;;
64545;Laerm;50936;51.660;5.616;2024-03-08T03:33:34;45.94;38.95;72.32;;
64545;Laerm;50936;51.660;5.616;2024-03-08T03:36:21;44.77;38.99;64.66;;
64545;Laerm;50936;51.660;5.616;2024-03-08T03:39:09;48.75;39.46;72.65;;
64545;Laerm;50936;51.660;5.616;2024-03-08T03:42:04;47.51;38.67;71.10;;
64545;Laerm;50936;51.660;5.616;2024-03-08T03:44:51;48.96;38.95;73.54;;
64545;Laerm;50936;51.660;5.616;2024-03-08T03:47:39;52.16;39.21;78.09;;
64545;Laerm;50936;51.660;5.616;2024-03-08T03:50:26;49.30;39.21;76.10;;
64545;Laerm;50936;51.660;5.616;2024-03-08T03:53:14;52.18;39.46;72.52;;
64545;Laerm;50936;51.660;5.616;2024-03-08T03:56:01;52.83;41.68;76.73;;
64545;Laerm;50936;51.660;5.616;2024-03-08T03:58:48;52.63;40.43;71.85;;
64545;Laerm;50936;51.660;5.616;2024-03-08T04:01:42;53.71;39.21;82.84;;
64545;Laerm;50936;51.660;5.616;2024-03-08T04:04:29;51.14;39.46;77.16;;
64545;Laerm;50936;51.660;5.616;2024-03-08T04:07:16;51.55;40.62;70.89;;
64545;Laerm;50936;51.660;5.616;2024-03-08T04:10:06;49.58;40.71;74.32;;
64545;Laerm;50936;51.660;5.616;2024-03-08T04:12:54;45.31;39.46;69.62;;
64545;Laerm;50936;51.660;5.616;2024-03-08T04:15:41;49.84;39.92;73.81;;
64545;Laerm;50936;51.660;5.616;2024-03-08T04:18:36;51.74;41.22;71.92;;
64545;Laerm;50936;51.660;5.616;2024-03-08T04:21:25;52.45;41.89;71.49;;
64545;Laerm;50936;51.660;5.616;2024-03-08T04:24:12;48.96;40.62;66.31;;
64545;Laerm;50936;51.660;5.616;2024-03-08T04:27:00;49.04;39.81;66.76;;
64545;Laerm;50936;51.660;5.616;2024-03-08T04:29:47;46.26;40.71;71.44;;
64545;Laerm;50936;51.660;5.616;2024-03-08T04:32:34;49.90;40.33;70.24;;
64545;Laerm;50936;51.660;5.616;2024-03-08T04:35:22;47.18;41.61;71.64;;
64545;Laerm;50936;51.660;5.616;2024-03-08T04:38:09;52.11;42.29;61.95;;
64545;Laerm;50936;51.660;5.616;2024-03-08T04:40:57;54.00;42.41;73.16;;
64545;Laerm;50936;51.660;5.616;2024-03-08T04:43:45;49.99;41.46;69.86;;
64545;Laerm;50936;51.660;5.616;2024-03-08T04:46:32;53.00;41.75;67.30;;
64545;Laerm;50936;51.660;5.616;2024-03-08T04:49:20;51.71;40.98;71.35;;
64545;Laerm;50936;51.660;5.616;2024-03-08T04:52:08;49.47;40.80;63.74;;
64545;Laerm;50936;51.660;5.616;2024-03-08T04:54:56;49.26;41.14;73.62;;
64545;Laerm;50936;51.660;5.616;2024-03-08T04:57:43;54.33;41.89;73.45;;
64545;Laerm;50936;51.660;5.616;2024-03-08T05:00:33;49.93;41.68;68.12;;
64545;Laerm;50936;51.660;5.616;2024-03-08T05:03:20;49.68;42.35;67.35;;
64545;Laerm;50936;51.660;5.616;2024-03-08T05:06:08;51.48;41.14;76.13;;
64545;Laerm;50936;51.660;5.616;2024-03-08T05:08:56;52.67;41.96;70.86;;
64545;Laerm;50936;51.660;5.616;2024-03-08T05:11:43;50.78;42.09;73.42;;
64545;Laerm;50936;51.660;5.616;2024-03-08T05:14:31;54.16;42.71;70.51;;
64545;Laerm;50936;51.660;5.616;2024-03-08T05:17:19;48.10;42.09;69.98;;
64545;Laerm;50936;51.660;5.616;2024-03-08T05:20:07;49.96;41.82;63.62;;
64545;Laerm;50936;51.660;5.616;2024-03-08T05:22:59;52.31;42.59;69.20;;
64545;Laerm;50936;51.660;5.616;2024-03-08T05:25:47;54.19;43.44;69.77;;
64545;Laerm;50936;51.660;5.616;2024-03-08T05:28:35;51.46;42.16;67.50;;
64545;Laerm;50936;51.660;5.616;2024-03-08T05:31:22;55.93;43.44;69.12;;
64545;Laerm;50936;51.660;5.616;2024-03-08T05:34:10;53.50;42.82;68.30;;
64545;Laerm;50936;51.660;5.616;2024-03-08T05:36:57;55.70;43.86;70.14;;
64545;Laerm;50936;51.660;5.616;2024-03-08T05:39:45;60.31;44.39;87.36;;
64545;Laerm;50936;51.660;5.616;2024-03-08T05:42:33;53.89;43.34;71.21;;
64545;Laerm;50936;51.660;5.616;2024-03-08T05:45:20;56.63;43.90;72.50;;
64545;Laerm;50936;51.660;5.616;2024-03-08T05:48:07;56.13;43.49;72.00;;
64545;Laerm;50936;51.660;5.616;2024-03-08T05:50:55;57.04;45.69;70.67;;
64545;Laerm;50936;51.660;5.616;2024-03-08T05:53:44;58.15;45.91;77.72;;
64545;Laerm;50936;51.660;5.616;2024-03-08T05:56:32;52.55;44.31;68.48;;
64545;Laerm;50936;51.660;5.616;2024-03-08T05:59:19;62.34;44.80;83.12;;
64545;Laerm;50936;51.660;5.616;2024-03-08T06:02:07;58.44;43.90;78.99;;
64545;Laerm;50936;51.660;5.616;2024-03-08T06:04:54;57.66;45.83;79.05;;
64545;Laerm;50936;51.660;5.616;2024-03-08T06:07:41;55.17;45.04;69.59;;
64545;Laerm;50936;51.660;5.616;2024-03-08T06:10:29;57.49;46.25;75.94;;
64545;Laerm;50936;51.660;5.616;2024-03-08T06:13:16;56.88;45.89;68.25;;
64545;Laerm;50936;51.660;5.616;2024-03-08T06:16:04;57.86;47.32;75.68;;
64545;Laerm;50936;51.660;5.616;2024-03-08T06:18:51;59.38;48.95;72.40;;
64545;Laerm;50936;51.660;5.616;2024-03-08T06:21:39;57.19;46.07;83.79;;
64545;Laerm;50936;51.660;5.616;2024-03-08T06:24:26;56.87;46.05;75.34;;
64545;Laerm;50936;51.660;5.616;2024-03-08T06:27:14;57.72;46.18;72.15;;
64545;Laerm;50936;51.660;5.616;2024-03-08T06:30:02;56.52;45.54;69.06;;
64545;Laerm;50936;51.660;5.616;2024-03-08T06:32:51;57.30;48.05;67.55;;
64545;Laerm;50936;51.660;5.616;2024-03-08T06:35:39;59.07;48.51;74.05;;
64545;Laerm;50936;51.660;5.616;2024-03-08T06:38:26;57.20;47.67;75.28;;
64545;Laerm;50936;51.660;5.616;2024-03-08T06:41:14;56.91;47.02;76.83;;
64545;Laerm;50936;51.660;5.616;2024-03-08T06:44:04;61.36;47.81;81.23;;
64545;Laerm;50936;51.660;5.616;2024-03-08T06:46:52;57.10;48.32;72.74;;
64545;Laerm;50936;51.660;5.616;2024-03-08T06:49:41;57.55;48.42;74.99;;
64545;Laerm;50936;51.660;5.616;2024-03-08T06:52:28;59.32;47.91;80.31;;
64545;Laerm;50936;51.660;5.616;2024-03-08T06:55:16;60.32;47.81;83.98;;
64545;Laerm;50936;51.660;5.616;2024-03-08T06:58:04;59.02;46.50;77.46;;
64545;Laerm;50936;51.660;5.616;2024-03-08T07:00:53;63.37;47.10;79.84;;
64545;Laerm;50936;51.660;5.616;2024-03-08T07:03:45;62.12;48.57;78.57;;
64545;Laerm;50936;51.660;5.616;2024-03-08T07:06:32;61.19;47.32;82.29;;
64545;Laerm;50936;51.660;5.616;2024-03-08T07:09:24;57.39;46.45;69.48;;
64545;Laerm;50936;51.660;5.616;2024-03-08T07:12:12;60.69;47.12;81.62;;
64545;Laerm;50936;51.660;5.616;2024-03-08T07:15:00;59.55;48.48;74.43;;
64545;Laerm;50936;51.660;5.616;2024-03-08T07:17:48;58.04;46.91;79.28;;
64545;Laerm;50936;51.660;5.616;2024-03-08T07:20:35;62.16;52.86;85.12;;
64545;Laerm;50936;51.660;5.616;2024-03-08T07:23:24;63.10;54.70;82.19;;
64545;Laerm;50936;51.660;5.616;2024-03-08T07:26:30;61.33;50.18;82.37;;
64545;Laerm;50936;51.660;5.616;2024-03-08T07:29:17;63.58;50.76;82.58;;
64545;Laerm;50936;51.660;5.616;2024-03-08T07:32:07;61.71;49.90;79.73;;
64545;Laerm;50936;51.660;5.616;2024-03-08T07:35:08;60.76;48.07;83.27;;
64545;Laerm;50936;51.660;5.616;2024-03-08T07:37:55;61.72;49.17;85.84;;
64545;Laerm;50936;51.660;5.616;2024-03-08T07:40:42;62.10;49.24;83.03;;
64545;Laerm;50936;51.660;5.616;2024-03-08T07:43:33;64.18;49.73;81.96;;
64545;Laerm;50936;51.660;5.616;2024-03-08T07:46:20;63.96;48.87;86.96;;
64545;Laerm;50936;51.660;5.616;2024-03-08T07:49:07;65.74;50.03;87.18;;
64545;Laerm;50936;51.660;5.616;2024-03-08T07:51:58;62.83;49.30;87.67;;
64545;Laerm;50936;51.660;5.616;2024-03-08T07:54:46;60.46;50.03;79.03;;
64545;Laerm;50936;51.660;5.616;2024-03-08T07:57:33;60.48;50.68;79.03;;
64545;Laerm;50936;51.660;5.616;2024-03-08T08:00:21;66.25;50.72;90.16;;
64545;Laerm;50936;51.660;5.616;2024-03-08T08:03:08;60.56;48.18;78.95;;
64545;Laerm;50936;51.660;5.616;2024-03-08T08:05:56;62.94;48.83;85.00;;
64545;Laerm;50936;51.660;5.616;2024-03-08T08:08:43;59.19;51.22;78.25;;
64545;Laerm;50936;51.660;5.616;2024-03-08T08:11:31;61.63;48.60;80.82;;
64545;Laerm;50936;51.660;5.616;2024-03-08T08:14:20;60.74;47.57;79.14;;
64545;Laerm;50936;51.660;5.616;2024-03-08T08:17:08;59.98;49.98;75.17;;
64545;Laerm;50936;51.660;5.616;2024-03-08T08:19:55;61.44;50.97;82.58;;
64545;Laerm;50936;51.660;5.616;2024-03-08T08:22:43;60.49;51.44;82.39;;
64545;Laerm;50936;51.660;5.616;2024-03-08T08:25:30;62.81;48.39;85.80;;
64545;Laerm;50936;51.660;5.616;2024-03-08T08:28:18;59.79;49.30;81.09;;
64545;Laerm;50936;51.660;5.616;2024-03-08T08:31:05;61.22;49.56;82.25;;
64545;Laerm;50936;51.660;5.616;2024-03-08T08:33:53;63.25;49.46;85.38;;
64545;Laerm;50936;51.660;5.616;2024-03-08T08:36:45;73.33;54.56;83.46;;
64545;Laerm;50936;51.660;5.616;2024-03-08T08:39:32;63.85;47.32;86.01;;
64545;Laerm;50936;51.660;5.616;2024-03-08T08:42:20;63.86;47.68;87.73;;
64545;Laerm;50936;51.660;5.616;2024-03-08T08:45:08;63.59;47.52;86.83;;
64545;Laerm;50936;51.660;5.616;2024-03-08T08:48:03;66.57;50.66;91.70;;
64545;Laerm;50936;51.660;5.616;2024-03-08T08:50:52;68.25;49.56;88.09;;
64545;Laerm;50936;51.660;5.616;2024-03-08T08:53:40;63.24;52.29;84.24;;
64545;Laerm;50936;51.660;5.616;2024-03-08T08:56:30;58.12;50.14;70.67;;
64545;Laerm;50936;51.660;5.616;2024-03-08T08:59:17;67.01;50.57;86.42;;
64545;Laerm;50936;51.660;5.616;2024-03-08T09:02:09;70.08;49.39;97.24;;
64545;Laerm;50936;51.660;5.616;2024-03-08T09:05:02;64.73;50.17;85.86;;
64545;Laerm;50936;51.660;5.616;2024-03-08T09:07:50;65.81;50.04;86.02;;
64545;Laerm;50936;51.660;5.616;2024-03-08T09:10:37;68.92;49.90;90.83;;
64545;Laerm;50936;51.660;5.616;2024-03-08T09:13:26;64.31;51.38;87.04;;
64545;Laerm;50936;51.660;5.616;2024-03-08T09:16:19;67.45;50.24;90.93;;
64545;Laerm;50936;51.660;5.616;2024-03-08T09:19:06;64.40;49.60;85.53;;
64545;Laerm;50936;51.660;5.616;2024-03-08T09:21:53;63.60;49.63;91.01;;
64545;Laerm;50936;51.660;5.616;2024-03-08T09:24:41;64.72;47.38;87.90;;
64545;Laerm;50936;51.660;5.616;2024-03-08T09:27:30;69.71;49.14;98.54;;
64545;Laerm;50936;51.660;5.616;2024-03-08T09:30:17;63.82;50.96;88.61;;
64545;Laerm;50936;51.660;5.616;2024-03-08T09:33:06;69.61;50.90;93.83;;
64545;Laerm;50936;51.660;5.616;2024-03-08T09:35:53;72.97;52.66;93.78;;
64545;Laerm;50936;51.660;5.616;2024-03-08T09:38:41;72.98;50.25;94.14;;
64545;Laerm;50936;51.660;5.616;2024-03-08T09:41:30;64.65;49.15;81.92;;
64545;Laerm;50936;51.660;5.616;2024-03-08T09:44:18;70.15;51.39;92.44;;
64545;Laerm;50936;51.660;5.616;2024-03-08T09:47:07;69.68;55.51;90.87;;
64545;Laerm;50936;51.660;5.616;2024-03-08T09:49:56;70.82;50.45;92.37;;
64545;Laerm;50936;51.660;5.616;2024-03-08T09:52:48;69.54;50.28;90.90;;
64545;Laerm;50936;51.660;5.616;2024-03-08T09:55:38;63.60;51.22;85.37;;
64545;Laerm;50936;51.660;5.616;2024-03-08T09:58:28;66.41;49.46;87.66;;
64545;Laerm;50936;51.660;5.616;2024-03-08T10:01:21;67.25;46.45;94.40;;
64545;Laerm;50936;51.660;5.616;2024-03-08T10:04:09;65.44;50.22;87.61;;
64545;Laerm;50936;51.660;5.616;2024-03-08T10:06:58;64.32;48.07;84.23;;
64545;Laerm;50936;51.660;5.616;2024-03-08T10:09:46;68.55;49.55;89.14;;
64545;Laerm;50936;51.660;5.616;2024-03-08T10:12:38;69.04;51.62;90.71;;
64545;Laerm;50936;51.660;5.616;2024-03-08T10:15:29;64.42;48.95;84.10;;
64545;Laerm;50936;51.660;5.616;2024-03-08T10:18:16;63.05;50.42;83.11;;
64545;Laerm;50936;51.660;5.616;2024-03-08T10:21:07;63.21;46.10;87.31;;
64545;Laerm;50936;51.660;5.616;2024-03-08T10:23:56;66.08;48.61;87.14;;
64545;Laerm;50936;51.660;5.616;2024-03-08T10:26:43;70.62;45.86;93.63;;
64545;Laerm;50936;51.660;5.616;2024-03-08T10:29:32;70.19;52.58;93.72;;
64545;Laerm;50936;51.660;5.616;2024-03-08T10:32:19;66.23;50.78;87.06;;
64545;Laerm;50936;51.660;5.616;2024-03-08T10:35:08;68.76;50.85;91.80;;
64545;Laerm;50936;51.660;5.616;2024-03-08T10:37:57;67.12;53.18;93.29;;
64545;Laerm;50936;51.660;5.616;2024-03-08T10:41:03;67.37;50.16;94.37;;
64545;Laerm;50936;51.660;5.616;2024-03-08T10:47:18;66.31;49.81;86.14;;
64545;Laerm;50936;51.660;5.616;2024-03-08T10:50:20;68.07;50.47;89.82;;
64545;Laerm;50936;51.660;5.616;2024-03-08T10:53:11;68.59;47.76;91.49;;
64545;Laerm;50936;51.660;5.616;2024-03-08T10:55:58;74.13;51.41;96.22;;
64545;Laerm;50936;51.660;5.616;2024-03-08T10:58:47;70.08;48.32;90.35;;
64545;Laerm;50936;51.660;5.616;2024-03-08T11:01:35;73.10;50.92;93.36;;
64545;Laerm;50936;51.660;5.616;2024-03-08T11:04:23;70.92;48.67;95.39;;
64545;Laerm;50936;51.660;5.616;2024-03-08T11:07:12;75.36;54.54;97.00;;
64545;Laerm;50936;51.660;5.616;2024-03-08T11:10:07;70.81;51.08;91.13;;
64545;Laerm;50936;51.660;5.616;2024-03-08T11:13:38;74.00;50.47;98.57;;
64545;Laerm;50936;51.660;5.616;2024-03-08T11:22:03;72.90;49.83;97.03;;
64545;Laerm;50936;51.660;5.616;2024-03-08T11:24:51;76.22;51.40;96.29;;
64545;Laerm;50936;51.660;5.616;2024-03-08T11:27:38;71.62;47.91;94.53;;
64545;Laerm;50936;51.660;5.616;2024-03-08T11:30:26;68.58;48.60;91.94;;
64545;Laerm;50936;51.660;5.616;2024-03-08T11:33:15;64.50;49.59;93.17;;
64545;Laerm;50936;51.660;5.616;2024-03-08T11:36:20;71.57;48.25;91.27;;
64545;Laerm;50936;51.660;5.616;2024-03-08T11:39:09;71.39;50.39;95.08;;
64545;Laerm;50936;51.660;5.616;2024-03-08T11:42:01;68.42;50.18;91.09;;
64545;Laerm;50936;51.660;5.616;2024-03-08T11:44:50;68.06;49.24;89.94;;
64545;Laerm;50936;51.660;5.616;2024-03-08T11:47:38;68.66;53.11;91.61;;
64545;Laerm;50936;51.660;5.616;2024-03-08T11:50:26;72.81;51.22;94.38;;
64545;Laerm;50936;51.660;5.616;2024-03-08T11:53:14;66.15;50.15;88.35;;
64545;Laerm;50936;51.660;5.616;2024-03-08T11:56:10;72.54;50.43;97.99;;
64545;Laerm;50936;51.660;5.616;2024-03-08T11:58:58;76.52;53.77;98.54;;
64545;Laerm;50936;51.660;5.616;2024-03-08T12:02:07;75.01;49.11;98.54;;
64545;Laerm;50936;51.660;5.616;2024-03-08T12:04:59;71.75;51.54;96.03;;
64545;Laerm;50936;51.660;5.616;2024-03-08T12:07:59;77.41;51.93;99.01;;
64545;Laerm;50936;51.660;5.616;2024-03-08T12:10:47;71.67;52.83;92.11;;
64545;Laerm;50936;51.660;5.616;2024-03-08T12:13:34;70.79;55.07;96.56;;
64545;Laerm;50936;51.660;5.616;2024-03-08T12:16:23;77.25;50.15;99.13;;
64545;Laerm;50936;51.660;5.616;2024-03-08T12:19:11;71.26;50.01;95.53;;
64545;Laerm;50936;51.660;5.616;2024-03-08T12:22:08;75.45;52.49;97.22;;
64545;Laerm;50936;51.660;5.616;2024-03-08T12:25:05;82.17;51.63;103.77;;
64545;Laerm;50936;51.660;5.616;2024-03-08T12:28:08;72.39;49.67;94.06;;
64545;Laerm;50936;51.660;5.616;2024-03-08T12:30:58;73.25;51.85;93.80;;
64545;Laerm;50936;51.660;5.616;2024-03-08T12:33:51;66.69;49.77;91.90;;
64545;Laerm;50936;51.660;5.616;2024-03-08T12:36:48;72.95;52.29;97.16;;
64545;Laerm;50936;51.660;5.616;2024-03-08T12:39:37;71.70;52.30;95.43;;
64545;Laerm;50936;51.660;5.616;2024-03-08T12:42:24;75.58;52.53;98.36;;
64545;Laerm;50936;51.660;5.616;2024-03-08T12:45:14;68.91;50.86;94.48;;
64545;Laerm;50936;51.660;5.616;2024-03-08T12:48:01;69.33;50.92;92.75;;
64545;Laerm;50936;51.660;5.616;2024-03-08T12:50:51;70.55;49.51;91.60;;
64545;Laerm;50936;51.660;5.616;2024-03-08T12:53:41;69.43;49.45;90.60;;
64545;Laerm;50936;51.660;5.616;2024-03-08T12:56:32;70.90;52.89;93.06;;
64545;Laerm;50936;51.660;5.616;2024-03-08T12:59:21;65.13;52.67;87.59;;
64545;Laerm;50936;51.660;5.616;2024-03-08T13:02:09;69.33;49.85;92.41;;
64545;Laerm;50936;51.660;5.616;2024-03-08T13:04:58;67.79;50.43;90.49;;
64545;Laerm;50936;51.660;5.616;2024-03-08T13:07:46;64.19;51.37;88.05;;
64545;Laerm;50936;51.660;5.616;2024-03-08T13:10:34;70.55;51.71;98.82;;
64545;Laerm;50936;51.660;5.616;2024-03-08T13:13:21;70.65;51.77;91.34;;
64545;Laerm;50936;51.660;5.616;2024-03-08T13:16:10;61.89;51.62;82.78;;
64545;Laerm;50936;51.660;5.616;2024-03-08T13:18:59;72.55;52.03;96.41;;
64545;Laerm;50936;51.660;5.616;2024-03-08T13:21:46;71.27;52.24;93.86;;
64545;Laerm;50936;51.660;5.616;2024-03-08T13:24:36;69.00;49.93;90.80;;
64545;Laerm;50936;51.660;5.616;2024-03-08T13:27:23;69.51;51.64;95.06;;
64545;Laerm;50936;51.660;5.616;2024-03-08T13:30:13;65.71;50.70;86.27;;
64545;Laerm;50936;51.660;5.616;2024-03-08T13:33:01;82.77;52.04;103.43;;
64545;Laerm;50936;51.660;5.616;2024-03-08T13:35:52;70.80;49.73;95.71;;
64545;Laerm;50936;51.660;5.616;2024-03-08T13:38:45;70.49;51.43;94.60;;
64545;Laerm;50936;51.660;5.616;2024-03-08T13:41:32;72.03;51.03;91.22;;
64545;Laerm;50936;51.660;5.616;2024-03-08T13:44:20;68.02;48.96;93.40;;
64545;Laerm;50936;51.660;5.616;2024-03-08T13:47:07;64.98;51.91;86.46;;
64545;Laerm;50936;51.660;5.616;2024-03-08T13:49:55;71.69;49.46;96.55;;
64545;Laerm;50936;51.660;5.616;2024-03-08T13:52:42;68.32;51.51;88.65;;
64545;Laerm;50936;51.660;5.616;2024-03-08T13:55:31;61.84;52.27;82.91;;
64545;Laerm;50936;51.660;5.616;2024-03-08T13:58:18;69.40;50.88;94.38;;
64545;Laerm;50936;51.660;5.616;2024-03-08T14:01:07;67.07;52.22;91.21;;
64545;Laerm;50936;51.660;5.616;2024-03-08T14:03:59;69.65;52.64;90.42;;
64545;Laerm;50936;51.660;5.616;2024-03-08T14:06:46;74.97;52.47;92.92;;
64545;Laerm;50936;51.660;5.616;2024-03-08T14:09:37;67.87;49.89;96.35;;
64545;Laerm;50936;51.660;5.616;2024-03-08T14:12:26;74.66;52.13;98.24;;
64545;Laerm;50936;51.660;5.616;2024-03-08T14:15:16;70.69;50.20;93.90;;
64545;Laerm;50936;51.660;5.616;2024-03-08T14:18:04;69.65;50.17;93.05;;
64545;Laerm;50936;51.660;5.616;2024-03-08T14:20:54;70.50;52.58;91.82;;
64545;Laerm;50936;51.660;5.616;2024-03-08T14:23:41;71.04;52.50;95.56;;
64545;Laerm;50936;51.660;5.616;2024-03-08T14:26:30;67.48;52.01;92.16;;
64545;Laerm;50936;51.660;5.616;2024-03-08T14:29:17;64.14;50.35;85.88;;
64545;Laerm;50936;51.660;5.616;2024-03-08T14:32:08;64.51;52.44;90.13;;
64545;Laerm;50936;51.660;5.616;2024-03-08T14:34:57;65.89;49.11;91.37;;
64545;Laerm;50936;51.660;5.616;2024-03-08T14:37:46;65.55;50.27;94.10;;
64545;Laerm;50936;51.660;5.616;2024-03-08T14:40:33;70.42;51.86;91.95;;
64545;Laerm;50936;51.660;5.616;2024-03-08T14:43:20;64.20;53.46;87.81;;
64545;Laerm;50936;51.660;5.616;2024-03-08T14:46:08;64.04;48.69;88.57;;
64545;Laerm;50936;51.660;5.616;2024-03-08T14:48:55;66.64;49.11;89.60;;
64545;Laerm;50936;51.660;5.616;2024-03-08T14:51:45;67.16;50.90;90.13;;
64545;Laerm;50936;51.660;5.616;2024-03-08T14:54:33;68.12;51.54;93.79;;
64545;Laerm;50936;51.660;5.616;2024-03-08T14:57:20;67.75;50.84;89.80;;
64545;Laerm;50936;51.660;5.616;2024-03-08T15:00:08;70.41;51.67;93.99;;
64545;Laerm;50936;51.660;5.616;2024-03-08T15:03:03;70.49;51.23;96.97;;
64545;Laerm;50936;51.660;5.616;2024-03-08T15:05:54;64.10;50.25;88.06;;
64545;Laerm;50936;51.660;5.616;2024-03-08T15:08:42;61.67;51.85;82.86;;
64545;Laerm;50936;51.660;5.616;2024-03-08T15:11:30;61.40;50.17;81.58;;
64545;Laerm;50936;51.660;5.616;2024-03-08T15:14:17;61.98;50.28;84.19;;
64545;Laerm;50936;51.660;5.616;2024-03-08T15:17:06;65.02;50.77;87.29;;
64545;Laerm;50936;51.660;5.616;2024-03-08T15:19:57;65.86;51.06;88.38;;
64545;Laerm;50936;51.660;5.616;2024-03-08T15:22:48;70.31;50.70;92.00;;
64545;Laerm;50936;51.660;5.616;2024-03-08T15:25:35;61.43;48.74;79.79;;
64545;Laerm;50936;51.660;5.616;2024-03-08T15:28:25;68.53;52.02;90.60;;
64545;Laerm;50936;51.660;5.616;2024-03-08T15:31:21;67.41;51.07;89.57;;
64545;Laerm;50936;51.660;5.616;2024-03-08T15:34:11;65.93;50.95;89.28;;
64545;Laerm;50936;51.660;5.616;2024-03-08T15:37:00;68.32;52.36;89.01;;
64545;Laerm;50936;51.660;5.616;2024-03-08T15:39:49;65.04;51.54;86.88;;
64545;Laerm;50936;51.660;5.616;2024-03-08T15:42:36;67.06;51.64;87.21;;
64545;Laerm;50936;51.660;5.616;2024-03-08T15:45:24;67.79;48.42;88.93;;
64545;Laerm;50936;51.660;5.616;2024-03-08T15:48:14;65.52;49.02;85.44;;
64545;Laerm;50936;51.660;5.616;2024-03-08T15:51:04;64.25;51.50;86.25;;
64545;Laerm;50936;51.660;5.616;2024-03-08T15:53:54;66.48;51.89;92.01;;